Time;durP1;ratioP1;P1;durP2;ratioP2;P2;SDS_P1;SDS_P2;PMS_P1;PMS_P2;Temp;Humidity;BMP_temperature;BMP_pressure;BME280_temperature;BME280_humidity;BME280_pressure;Samples;Min_cycle;Max_cycle;Signal;HPM_P1;HPM_P2
2022/05/27 00:02:07;;;;;;;0.40;0.40;;;23.60;42.60;;;-147.20;100.00;58430.41;5090990;28;20048;-20
2022/05/27 00:04:32;;;;;;;0.45;0.45;;;23.60;42.60;;;-147.20;100.00;58430.41;5092398;28;20054;-19
2022/05/27 00:06:58;;;;;;;0.40;0.40;;;23.60;42.60;;;-147.20;100.00;58430.41;5092405;28;20102;-20
2022/05/27 00:09:25;;;;;;;0.60;0.60;;;23.60;42.60;;;-147.20;100.00;58430.41;5092505;28;20044;-20
2022/05/27 00:11:51;;;;;;;0.30;0.30;;;23.60;42.60;;;-147.20;100.00;58430.41;5095949;28;20537;-20
2022/05/27 00:14:17;;;;;;;0.43;0.40;;;23.60;42.60;;;-147.20;100.00;58430.41;5095673;28;20044;-19
2022/05/27 00:16:42;;;;;;;0.50;0.50;;;23.60;42.60;;;-147.20;100.00;58430.41;5095232;28;20509;-20
2022/05/27 00:19:08;;;;;;;0.40;0.40;;;23.60;42.60;;;-147.20;100.00;58430.41;5095375;28;20411;-19
2022/05/27 00:21:34;;;;;;;0.32;0.32;;;23.60;42.60;;;-147.20;100.00;58430.41;5095448;28;20055;-19
2022/05/27 00:24:00;;;;;;;0.43;0.40;;;23.60;42.60;;;-147.20;100.00;58430.41;5095373;28;20056;-20
2022/05/27 00:26:26;;;;;;;0.57;0.57;;;23.60;42.60;;;-147.20;100.00;58430.41;5095355;28;20056;-20
2022/05/27 00:28:52;;;;;;;0.50;0.50;;;23.60;42.60;;;-147.20;100.00;58430.41;5095214;28;20056;-20
2022/05/27 00:31:20;;;;;;;0.40;0.40;;;23.50;42.50;;;-147.20;100.00;58430.41;5095453;28;20064;-20
2022/05/27 00:33:47;;;;;;;0.40;0.40;;;23.60;42.60;;;-147.20;100.00;58430.41;5095619;28;20140;-19
2022/05/27 00:36:14;;;;;;;0.40;0.40;;;23.50;42.50;;;-147.20;100.00;58430.41;5095221;28;20127;-19
2022/05/27 00:38:42;;;;;;;0.40;0.40;;;23.60;42.60;;;-147.20;100.00;58430.41;5095349;28;20040;-20
2022/05/27 00:41:09;;;;;;;0.38;0.38;;;23.60;42.60;;;-147.20;100.00;58430.41;5094925;28;20075;-20
2022/05/27 00:43:36;;;;;;;0.38;0.38;;;23.60;42.60;;;-147.20;100.00;58430.41;5095185;28;20492;-19
2022/05/27 00:46:17;;;;;;;0.32;0.32;;;23.60;42.60;;;-147.20;100.00;58430.41;5095107;28;20059;-20
2022/05/27 00:48:45;;;;;;;0.40;0.40;;;23.60;42.60;;;-147.20;100.00;58430.41;5095459;28;20127;-20
2022/05/27 00:51:20;;;;;;;0.40;0.40;;;23.60;42.60;;;-147.20;100.00;58430.41;5076978;28;20040;-19
2022/05/27 00:54:15;;;;;;;0.43;0.40;;;23.60;42.60;;;-147.20;100.00;58430.41;5095385;28;20541;-20
2022/05/27 00:56:44;;;;;;;0.40;0.40;;;23.60;42.60;;;-147.20;100.00;58430.41;5074710;28;20459;-19
2022/05/27 00:59:59;;;;;;;0.40;0.40;;;23.50;42.60;;;-147.20;100.00;58430.41;5076653;28;20136;-20
2022/05/27 01:02:25;;;;;;;0.40;0.40;;;23.50;42.60;;;-147.20;100.00;58430.41;5094914;28;20048;-19
2022/05/27 01:04:51;;;;;;;0.40;0.40;;;23.60;42.60;;;-147.20;100.00;58430.41;5095166;28;20055;-20
2022/05/27 01:07:17;;;;;;;0.30;0.30;;;23.60;42.60;;;-147.20;100.00;58430.41;5094779;28;20055;-20
2022/05/27 01:09:46;;;;;;;0.38;0.38;;;23.50;42.60;;;-147.20;100.00;58430.41;5094753;28;20048;-19
2022/05/27 01:13:04;;;;;;;0.40;0.40;;;23.50;42.60;;;-147.20;100.00;58430.41;5076647;28;20055;-20
2022/05/27 01:15:52;;;;;;;0.52;0.40;;;23.50;42.60;;;-147.20;100.00;58430.41;5076425;28;20056;-20
2022/05/27 01:22:47;;;;;;;1.33;0.52;;;23.50;42.60;;;-147.20;100.00;58430.41;5078634;28;20515;-20
2022/05/27 01:25:49;;;;;;;0.50;0.50;;;23.50;42.60;;;-147.20;100.00;58430.41;5060099;28;20484;-19
2022/05/27 01:28:34;;;;;;;0.30;0.30;;;23.50;42.60;;;-147.20;100.00;58430.41;5094313;28;20472;-20
2022/05/27 01:31:23;;;;;;;0.68;0.50;;;23.50;42.60;;;-147.20;100.00;58430.41;5076403;28;20484;-19
2022/05/27 01:34:19;;;;;;;0.50;0.50;;;23.50;42.60;;;-147.20;100.00;58430.41;5074767;28;20048;-20
2022/05/27 01:37:17;;;;;;;0.50;0.50;;;23.50;42.60;;;-147.20;100.00;58430.41;5075592;28;20454;-20
2022/05/27 01:39:56;;;;;;;0.40;0.40;;;23.50;42.60;;;-147.20;100.00;58430.41;5094785;28;20048;-20
2022/05/27 01:42:35;;;;;;;0.40;0.40;;;23.50;42.60;;;-147.20;100.00;58430.41;5094351;28;20055;-19
2022/05/27 01:45:36;;;;;;;0.43;0.43;;;23.50;42.70;;;-147.20;100.00;58430.41;5094192;28;20479;-20
2022/05/27 01:48:11;;;;;;;0.30;0.30;;;23.50;42.60;;;-147.20;100.00;58430.41;5074212;28;20048;-20
2022/05/27 01:50:46;;;;;;;0.40;0.40;;;23.50;42.60;;;-147.20;100.00;58430.41;5075978;28;20040;-19
2022/05/27 01:53:24;;;;;;;0.40;0.40;;;23.50;42.60;;;-147.20;100.00;58430.41;5075275;28;20044;-20
2022/05/27 01:55:58;;;;;;;0.40;0.40;;;23.50;42.70;;;-147.20;100.00;58430.41;5094597;28;20532;-20
2022/05/27 01:58:46;;;;;;;0.60;0.60;;;23.50;42.60;;;-147.20;100.00;58430.41;5074654;28;20136;-20
2022/05/27 02:01:21;;;;;;;0.45;0.45;;;23.50;42.60;;;-147.20;100.00;58430.41;5075815;28;20492;-19
2022/05/27 02:03:54;;;;;;;0.50;0.40;;;23.50;42.70;;;-147.20;100.00;58430.41;5076048;28;20044;-20
2022/05/27 02:06:37;;;;;;;0.65;0.40;;;23.50;42.60;;;-147.20;100.00;58430.41;5074187;28;20459;-19
2022/05/27 02:09:18;;;;;;;0.50;0.50;;;23.50;42.70;;;-147.20;100.00;58430.41;5075343;28;20454;-19
2022/05/27 02:11:48;;;;;;;0.50;0.50;;;23.50;42.60;;;-147.20;100.00;58430.41;5075449;28;20044;-20
2022/05/27 02:14:36;;;;;;;0.40;0.40;;;23.40;42.60;;;-147.20;100.00;58430.41;5058615;28;20474;-20
2022/05/27 02:17:07;;;;;;;0.57;0.47;;;23.50;42.70;;;-147.20;100.00;58430.41;5075357;28;20536;-20
2022/05/27 02:19:41;;;;;;;0.75;0.68;;;23.50;42.70;;;-147.20;100.00;58430.41;5093280;28;20569;-20
2022/05/27 02:22:12;;;;;;;0.50;0.50;;;23.50;42.70;;;-147.20;100.00;58430.41;5076037;28;20425;-20
2022/05/27 02:24:49;;;;;;;0.40;0.40;;;23.50;42.70;;;-147.20;100.00;58430.41;5075864;28;20048;-19
2022/05/27 02:27:24;;;;;;;0.93;0.50;;;23.50;42.70;;;-147.20;100.00;58430.41;5058600;28;20058;-19
2022/05/27 02:29:58;;;;;;;0.40;0.40;;;23.50;42.70;;;-147.20;100.00;58430.41;5075131;28;20381;-19
2022/05/27 02:32:33;;;;;;;0.30;0.30;;;23.50;42.70;;;-147.20;100.00;58430.41;5075307;28;20109;-20
2022/05/27 02:35:12;;;;;;;0.40;0.40;;;23.50;42.70;;;-147.20;100.00;58430.41;5076003;28;20119;-20
2022/05/27 02:37:48;;;;;;;0.65;0.60;;;23.50;43.20;;;-147.20;100.00;58430.41;5075604;28;20058;-19
2022/05/27 02:40:29;;;;;;;0.43;0.43;;;23.50;42.70;;;-147.20;100.00;58430.41;5073829;28;20545;-20
2022/05/27 02:43:30;;;;;;;0.50;0.50;;;23.40;42.70;;;-147.20;100.00;58430.41;5075215;28;20048;-20
2022/05/27 02:46:20;;;;;;;0.40;0.40;;;23.40;42.70;;;-147.20;100.00;58430.41;5093184;28;20411;-20
2022/05/27 02:49:26;;;;;;;0.80;0.60;;;23.50;42.70;;;-147.20;100.00;58430.41;5093272;28;20051;-20
2022/05/27 02:52:22;;;;;;;1.05;0.50;;;23.40;42.90;;;-147.20;100.00;58430.41;5075146;28;20408;-19
2022/05/27 02:55:00;;;;;;;0.40;0.40;;;23.40;42.70;;;-147.20;100.00;58430.41;5093081;28;20063;-20
2022/05/27 02:57:38;;;;;;;0.40;0.40;;;23.40;42.70;;;-147.20;100.00;58430.41;5075188;28;20058;-20
2022/05/27 03:00:13;;;;;;;0.63;0.50;;;23.40;42.70;;;-147.20;100.00;58430.41;5093350;28;20052;-20
2022/05/27 03:02:38;;;;;;;0.30;0.30;;;23.40;42.70;;;-147.20;100.00;58430.41;5093285;28;20055;-19
2022/05/27 03:05:05;;;;;;;0.30;0.30;;;23.40;42.70;;;-147.20;100.00;58430.41;5092994;28;20083;-17
2022/05/27 03:08:19;;;;;;;0.40;0.40;;;23.40;42.70;;;-147.20;100.00;58430.41;5093513;28;20036;-17
2022/05/27 03:11:09;;;;;;;0.40;0.40;;;23.40;42.70;;;-147.20;100.00;58430.41;5075037;28;20052;-18
2022/05/27 03:14:10;;;;;;;0.38;0.38;;;23.40;42.70;;;-147.20;100.00;58430.41;5074615;28;20056;-20
2022/05/27 03:17:09;;;;;;;0.50;0.50;;;23.40;42.70;;;-147.20;100.00;58430.41;5092777;28;20060;-19
2022/05/27 03:19:59;;;;;;;0.40;0.40;;;23.40;42.70;;;-147.20;100.00;58430.41;5073171;28;20055;-19
2022/05/27 03:23:04;;;;;;;0.35;0.35;;;23.40;42.70;;;-147.20;100.00;58430.41;5092802;28;20492;-20
2022/05/27 03:25:50;;;;;;;0.47;0.40;;;23.40;42.70;;;-147.20;100.00;58430.41;5093010;28;20445;-19
2022/05/27 03:28:40;;;;;;;0.30;0.30;;;23.40;42.60;;;-147.20;100.00;58430.41;5074429;28;20044;-20
2022/05/27 03:31:15;;;;;;;0.40;0.40;;;23.50;42.70;;;-147.20;100.00;58430.41;5092889;28;20048;-19
2022/05/27 03:33:56;;;;;;;0.43;0.43;;;23.50;42.60;;;-147.20;100.00;58430.41;5074929;28;20051;-20
2022/05/27 03:37:14;;;;;;;0.65;0.60;;;23.50;42.60;;;-147.20;100.00;58430.41;5073043;28;20056;-19
2022/05/27 03:40:04;;;;;;;0.55;0.50;;;23.50;42.60;;;-147.20;100.00;58430.41;5067690;28;20044;-19
2022/05/27 03:42:31;;;;;;;0.40;0.40;;;23.50;42.50;;;-147.20;100.00;58430.41;5074279;28;20040;-19
2022/05/27 03:45:07;;;;;;;0.43;0.43;;;23.50;43.00;;;-147.20;100.00;58430.41;5075586;28;20047;-19
2022/05/27 03:47:34;;;;;;;0.40;0.40;;;23.50;42.50;;;-147.20;100.00;58430.41;5096005;28;20446;-19
2022/05/27 03:50:00;;;;;;;0.40;0.40;;;23.60;42.50;;;-147.20;100.00;58430.41;5096018;28;20055;-20
2022/05/27 03:52:36;;;;;;;0.40;0.40;;;23.60;42.40;;;-147.20;100.00;58430.41;5096316;28;20044;-20
2022/05/27 03:55:02;;;;;;;0.40;0.40;;;23.70;42.40;;;-147.20;100.00;58430.41;5096330;28;20055;-19
2022/05/27 03:57:28;;;;;;;0.38;0.38;;;23.70;42.40;;;-147.20;100.00;58430.41;5095708;28;20044;-20
2022/05/27 03:59:53;;;;;;;0.50;0.43;;;23.70;42.30;;;-147.20;100.00;58430.41;5095899;28;20440;-20
2022/05/27 04:02:19;;;;;;;0.55;0.45;;;23.70;42.30;;;-147.20;100.00;58430.41;5096078;28;20472;-19
2022/05/27 04:04:45;;;;;;;0.70;0.50;;;23.80;42.20;;;-147.20;100.00;58430.41;5095844;28;20517;-20
2022/05/27 04:07:11;;;;;;;0.40;0.40;;;23.80;42.20;;;-147.20;100.00;58430.41;5095762;28;20400;-20
2022/05/27 04:09:36;;;;;;;0.63;0.50;;;23.80;42.10;;;-147.20;100.00;58430.41;5095724;28;20497;-20
2022/05/27 04:12:03;;;;;;;0.30;0.30;;;23.90;42.10;;;-147.20;100.00;58430.41;5095731;28;20396;-20
2022/05/27 04:14:31;;;;;;;0.50;0.50;;;23.90;42.10;;;-147.20;100.00;58430.41;5095910;28;20476;-19
2022/05/27 04:17:27;;;;;;;0.40;0.40;;;24.00;42.00;;;-147.20;100.00;58430.41;5095346;28;20079;-20
2022/05/27 04:19:44;;;;;;;0.40;0.40;;;24.00;42.00;;;-147.20;100.00;58430.41;5092827;28;20534;-19
2022/05/27 04:22:11;;;;;;;0.50;0.40;;;24.10;41.90;;;-147.20;100.00;58430.41;5095393;28;20492;-19
2022/05/27 04:24:37;;;;;;;0.50;0.45;;;24.10;41.80;;;-147.20;100.00;58430.41;5096062;28;20498;-20
2022/05/27 04:27:12;;;;;;;0.50;0.30;;;24.10;41.80;;;-147.20;100.00;58430.41;5095445;28;20442;-19
2022/05/27 04:29:44;;;;;;;0.40;0.40;;;24.20;41.90;;;-147.20;100.00;58430.41;5095711;28;20101;-19
2022/05/27 04:32:10;;;;;;;0.38;0.38;;;24.20;41.80;;;-147.20;100.00;58430.41;5096039;28;20083;-20
2022/05/27 04:34:36;;;;;;;0.40;0.40;;;24.30;41.70;;;-147.20;100.00;58430.41;5095699;28;20044;-20
2022/05/27 04:37:03;;;;;;;0.50;0.50;;;24.30;41.70;;;-147.20;100.00;58430.41;5095053;28;20059;-18
2022/05/27 04:39:29;;;;;;;0.47;0.47;;;24.30;41.60;;;-147.20;100.00;58430.41;5095288;28;20040;-20
2022/05/27 04:41:55;;;;;;;0.52;0.52;;;24.40;41.60;;;-147.20;100.00;58430.41;5095278;28;20048;-19
2022/05/27 04:44:21;;;;;;;0.68;0.68;;;24.40;41.50;;;-147.20;100.00;58430.41;5095663;28;20056;-20
2022/05/27 04:46:46;;;;;;;0.38;0.30;;;24.40;41.50;;;-147.20;100.00;58430.41;5095326;28;20546;-20
2022/05/27 04:49:50;;;;;;;0.30;0.30;;;24.50;41.40;;;-147.20;100.00;58430.41;5095095;28;20056;-20
2022/05/27 04:52:00;;;;;;;0.47;0.47;;;24.50;41.40;;;-147.20;100.00;58430.41;5091180;28;20056;-20
2022/05/27 04:54:27;;;;;;;0.40;0.40;;;24.50;41.30;;;-147.20;100.00;58430.41;5094876;28;20044;-20
2022/05/27 04:56:56;;;;;;;0.52;0.52;;;24.60;41.30;;;-147.20;100.00;58430.41;5094953;28;20052;-20
2022/05/27 04:59:24;;;;;;;0.50;0.50;;;24.60;41.20;;;-147.20;100.00;58430.41;5094909;28;20040;-20
2022/05/27 05:01:51;;;;;;;0.43;0.43;;;24.70;41.20;;;-147.20;100.00;58430.41;5094836;28;20048;-20
2022/05/27 05:04:17;;;;;;;0.50;0.50;;;24.70;41.10;;;-147.20;100.00;58430.41;5095129;28;20047;-20
2022/05/27 05:06:43;;;;;;;0.68;0.50;;;24.70;41.10;;;-147.20;100.00;58430.41;5095057;28;20058;-20
2022/05/27 05:09:10;;;;;;;0.40;0.40;;;24.70;41.00;;;-147.20;100.00;58430.41;5094506;28;20044;-20
2022/05/27 05:11:36;;;;;;;0.47;0.40;;;24.70;41.00;;;-147.20;100.00;58430.41;5074822;28;20109;-20
2022/05/27 05:14:02;;;;;;;0.50;0.50;;;24.70;41.00;;;-147.20;100.00;58430.41;5094975;28;20041;-20
2022/05/27 05:16:28;;;;;;;0.40;0.40;;;24.80;41.00;;;-147.20;100.00;58430.41;5094384;28;20112;-20
2022/05/27 05:18:54;;;;;;;0.75;0.50;;;24.80;40.90;;;-147.20;100.00;58430.41;5094172;28;20044;-19
2022/05/27 05:21:20;;;;;;;0.47;0.47;;;24.90;41.00;;;-147.20;100.00;58430.41;5094814;28;20044;-20
2022/05/27 05:23:46;;;;;;;0.73;0.50;;;24.90;40.90;;;-147.20;100.00;58430.41;5094606;28;20055;-19
2022/05/27 05:26:12;;;;;;;0.98;0.55;;;24.90;40.90;;;-147.20;100.00;58430.41;5094603;28;20087;-20
2022/05/27 05:28:38;;;;;;;0.30;0.30;;;24.90;40.90;;;-147.20;100.00;58430.41;5094970;28;20387;-19
2022/05/27 05:31:06;;;;;;;0.63;0.50;;;24.90;40.90;;;-147.20;100.00;58430.41;5094965;28;20044;-20
2022/05/27 05:33:32;;;;;;;0.40;0.40;;;24.90;40.80;;;-147.20;100.00;58430.41;5094755;28;20097;-20
2022/05/27 05:35:58;;;;;;;1.05;0.52;;;25.00;40.80;;;-147.20;100.00;58430.41;5094283;28;20044;-19
2022/05/27 05:38:26;;;;;;;0.68;0.40;;;25.00;40.80;;;-147.20;100.00;58430.41;5094231;28;20106;-20
2022/05/27 05:40:52;;;;;;;0.65;0.40;;;25.00;40.70;;;-147.20;100.00;58430.41;5094373;28;20511;-20
2022/05/27 05:43:17;;;;;;;0.50;0.45;;;25.00;40.70;;;-147.20;100.00;58430.41;5094291;28;20048;-20
2022/05/27 05:45:43;;;;;;;0.47;0.47;;;25.10;40.70;;;-147.20;100.00;58430.41;5094303;28;20048;-20
2022/05/27 05:48:09;;;;;;;0.40;0.40;;;25.10;40.60;;;-147.20;100.00;58430.41;5094666;28;20085;-19
2022/05/27 05:50:35;;;;;;;0.40;0.40;;;25.10;40.60;;;-147.20;100.00;58430.41;5094452;28;20096;-20
2022/05/27 05:53:01;;;;;;;0.68;0.68;;;25.10;40.50;;;-147.20;100.00;58430.41;5094206;28;20054;-20
2022/05/27 05:55:27;;;;;;;0.30;0.30;;;25.20;40.60;;;-147.20;100.00;58430.41;5094361;28;20054;-20
2022/05/27 05:57:53;;;;;;;0.40;0.40;;;25.20;40.50;;;-147.20;100.00;58430.41;5093880;28;20056;-20
2022/05/27 06:00:28;;;;;;;0.50;0.50;;;25.20;40.40;;;-147.20;100.00;58430.41;5094581;28;20041;-21
2022/05/27 06:02:54;;;;;;;0.40;0.40;;;25.20;40.40;;;-147.20;100.00;58430.41;5094244;28;20491;-19
2022/05/27 06:05:22;;;;;;;0.50;0.50;;;25.30;40.40;;;-147.20;100.00;58430.41;5093858;28;20139;-19
2022/05/27 06:07:48;;;;;;;0.40;0.40;;;25.30;40.40;;;-147.20;100.00;58430.41;5092788;28;20044;-20
2022/05/27 06:10:16;;;;;;;0.77;0.60;;;25.40;40.40;;;-147.20;100.00;58430.41;5093812;28;20044;-18
2022/05/27 06:12:42;;;;;;;0.47;0.45;;;25.30;40.30;;;-147.20;100.00;58430.41;5076012;28;20048;-18
2022/05/27 06:15:15;;;;;;;0.50;0.40;;;25.30;40.30;;;-147.20;100.00;58430.41;5093982;28;20044;-18
2022/05/27 06:17:41;;;;;;;0.43;0.40;;;25.30;40.30;;;-147.20;100.00;58430.41;5076067;28;20048;-20
2022/05/27 06:20:08;;;;;;;0.50;0.40;;;25.40;40.40;;;-147.20;100.00;58430.41;5093862;28;20044;-20
2022/05/27 06:22:34;;;;;;;0.40;0.40;;;25.30;40.40;;;-147.20;100.00;58430.41;5094316;28;20547;-20
2022/05/27 06:25:01;;;;;;;0.45;0.45;;;25.20;40.40;;;-147.20;100.00;58430.41;5094230;28;20102;-20
2022/05/27 06:27:27;;;;;;;0.80;0.40;;;25.20;40.40;;;-147.20;100.00;58430.41;5094085;28;20051;-19
2022/05/27 06:35:21;;;;;;;0.40;0.40;;;25.10;40.60;;;-147.20;100.00;58430.41;5093811;28;20044;-20
2022/05/27 06:37:48;;;;;;;0.50;0.50;;;25.20;40.50;;;-147.20;100.00;58430.41;5093133;28;20052;-20
2022/05/27 06:40:14;;;;;;;0.40;0.40;;;25.20;40.50;;;-147.20;100.00;58430.41;5093434;28;20549;-20
2022/05/27 06:42:40;;;;;;;0.38;0.38;;;25.30;40.40;;;-147.20;100.00;58430.41;5093620;28;20072;-20
2022/05/27 06:45:09;;;;;;;0.40;0.40;;;25.30;40.30;;;-147.20;100.00;58430.41;5093370;28;20058;-20
2022/05/27 06:47:36;;;;;;;0.47;0.35;;;25.40;40.40;;;-147.20;100.00;58430.41;5093735;28;20487;-20
2022/05/27 06:50:02;;;;;;;0.40;0.40;;;25.30;40.40;;;-147.20;100.00;58430.41;5093862;28;20048;-19
2022/05/27 06:52:28;;;;;;;0.43;0.43;;;25.30;40.40;;;-147.20;100.00;58430.41;5093204;28;20059;-19
2022/05/27 06:54:54;;;;;;;0.45;0.45;;;25.30;40.30;;;-147.20;100.00;58430.41;5093502;28;20040;-20
2022/05/27 06:57:19;;;;;;;0.40;0.40;;;25.40;40.30;;;-147.20;100.00;58430.41;5092818;28;20036;-20
2022/05/27 06:59:45;;;;;;;0.40;0.40;;;25.50;40.20;;;-147.20;100.00;58430.41;5093096;28;20127;-20
2022/05/27 07:02:11;;;;;;;0.50;0.50;;;25.50;40.10;;;-147.20;100.00;58430.41;5092926;28;20487;-20
2022/05/27 07:04:37;;;;;;;0.50;0.50;;;25.50;40.00;;;-147.20;100.00;58430.41;5093033;28;20082;-20
2022/05/27 07:07:04;;;;;;;0.60;0.47;;;25.60;40.00;;;-147.20;100.00;58430.41;5092954;28;20044;-20
2022/05/27 07:09:35;;;;;;;0.50;0.40;;;25.60;39.80;;;-147.20;100.00;58430.41;5092912;28;20052;-21
2022/05/27 07:12:12;;;;;;;;;;;25.60;39.90;;;-147.20;100.00;58430.41;5093596;28;20391;-20
2022/05/27 07:14:39;;;;;;;0.32;0.32;;;25.60;39.90;;;-147.20;100.00;58430.41;5092919;28;20011;-21
2022/05/27 07:17:05;;;;;;;0.50;0.50;;;25.60;40.00;;;-147.20;100.00;58430.41;5092338;28;20134;-20
2022/05/27 07:19:31;;;;;;;0.50;0.50;;;25.50;40.10;;;-147.20;100.00;58430.41;5092379;28;20044;-20
2022/05/27 07:21:58;;;;;;;0.43;0.40;;;25.50;40.10;;;-147.20;100.00;58430.41;5093084;28;20040;-20
2022/05/27 07:24:26;;;;;;;0.30;0.30;;;25.50;40.10;;;-147.20;100.00;58430.41;5072968;28;20040;-19
2022/05/27 07:26:53;;;;;;;0.43;0.43;;;25.40;40.20;;;-147.20;100.00;58430.41;5093011;28;20056;-20
2022/05/27 07:29:20;;;;;;;0.52;0.52;;;25.40;40.30;;;-147.20;100.00;58430.41;5093009;28;20131;-20
2022/05/27 07:31:45;;;;;;;0.47;0.47;;;25.40;40.30;;;-147.20;100.00;58430.41;5092842;28;20491;-20
2022/05/27 07:34:12;;;;;;;0.60;0.60;;;25.40;40.20;;;-147.20;100.00;58430.41;5092602;28;20069;-19
2022/05/27 07:36:38;;;;;;;0.52;0.52;;;25.40;40.20;;;-147.20;100.00;58430.41;5092454;28;20044;-20
2022/05/27 07:39:04;;;;;;;0.85;0.57;;;25.50;40.10;;;-147.20;100.00;58430.41;5092501;28;20048;-20
2022/05/27 07:41:31;;;;;;;0.50;0.50;;;25.60;40.00;;;-147.20;100.00;58430.41;5092483;28;20047;-19
2022/05/27 07:43:59;;;;;;;0.60;0.50;;;25.70;39.90;;;-147.20;100.00;58430.41;5092135;28;20052;-20
2022/05/27 07:46:25;;;;;;;0.60;0.50;;;25.70;39.80;;;-147.20;100.00;58430.41;5092073;28;20412;-20
2022/05/27 07:48:51;;;;;;;0.40;0.40;;;25.70;39.80;;;-147.20;100.00;58430.41;5072417;28;20057;-20
2022/05/27 07:51:17;;;;;;;0.60;0.40;;;25.80;39.70;;;-147.20;100.00;58430.41;5092428;28;20056;-20
2022/05/27 07:53:43;;;;;;;0.40;0.40;;;25.80;39.60;;;-147.20;100.00;58430.41;5092316;28;20546;-21
2022/05/27 07:56:10;;;;;;;0.70;0.60;;;25.70;39.70;;;-147.20;100.00;58430.41;5092124;28;20078;-20
2022/05/27 07:58:37;;;;;;;0.57;0.50;;;25.60;40.00;;;-147.20;100.00;58430.41;5092054;28;20491;-20
2022/05/27 08:01:05;;;;;;;0.40;0.40;;;25.50;40.10;;;-147.20;100.00;58430.41;5092260;28;20036;-19
2022/05/27 08:03:31;;;;;;;0.50;0.50;;;25.40;40.80;;;-147.20;100.00;58430.41;5092492;28;20098;-20
2022/05/27 08:05:59;;;;;;;0.43;0.43;;;25.40;40.10;;;-147.20;100.00;58430.41;5092048;28;20075;-19
2022/05/27 08:08:26;;;;;;;0.43;0.43;;;25.50;40.00;;;-147.20;100.00;58430.41;5092131;28;20102;-20
2022/05/27 08:10:52;;;;;;;0.85;0.50;;;25.60;40.00;;;-147.20;100.00;58430.41;5092436;28;20476;-20
2022/05/27 08:13:18;;;;;;;0.52;0.40;;;25.60;39.90;;;-147.20;100.00;58430.41;5092412;28;20048;-20
2022/05/27 08:15:44;;;;;;;0.38;0.38;;;25.60;39.80;;;-147.20;100.00;58430.41;5073811;28;20051;-21
2022/05/27 08:18:10;;;;;;;0.40;0.40;;;25.70;39.80;;;-147.20;100.00;58430.41;5091937;28;20135;-20
2022/05/27 08:20:39;;;;;;;0.60;0.60;;;25.70;39.70;;;-147.20;100.00;58430.41;5092006;28;20121;-20
2022/05/27 08:23:06;;;;;;;0.40;0.40;;;25.70;39.70;;;-147.20;100.00;58430.41;5092283;28;20442;-21
2022/05/27 08:25:32;;;;;;;0.45;0.45;;;25.70;39.80;;;-147.20;100.00;58430.41;5092027;28;20036;-20
2022/05/27 08:27:58;;;;;;;0.52;0.52;;;25.70;39.70;;;-147.20;100.00;58430.41;5092431;28;20052;-19
2022/05/27 08:30:29;;;;;;;0.80;0.50;;;25.60;39.80;;;-147.20;100.00;58430.41;5092200;28;20044;-18
2022/05/27 08:32:56;;;;;;;0.55;0.55;;;25.60;39.90;;;-147.20;100.00;58430.41;5095770;28;20052;-19
2022/05/27 08:38:14;;;;;;;0.68;0.55;;;25.60;39.90;;;-147.20;100.00;58430.41;5095589;28;20048;-19
2022/05/27 08:41:10;;;;;;;0.40;0.40;;;25.60;40.00;;;-147.20;100.00;58430.41;5077180;28;20051;-18
2022/05/27 08:44:05;;;;;;;0.55;0.50;;;25.50;40.00;;;-147.20;100.00;58430.41;5095682;28;20502;-18
2022/05/27 08:47:19;;;;;;;0.50;0.40;;;25.50;40.40;;;-147.20;100.00;58430.41;5075267;28;20091;-18
2022/05/27 08:49:50;;;;;;;0.73;0.50;;;25.50;40.00;;;-147.20;100.00;58430.41;5077059;28;20055;-19
2022/05/27 08:52:42;;;;;;;0.63;0.50;;;25.50;40.00;;;-147.20;100.00;58430.41;5095599;28;20040;-18
2022/05/27 09:01:31;;;;;;;1.08;0.50;;;25.40;40.20;;;-147.20;100.00;58430.41;5095533;28;20048;-19
2022/05/27 09:04:09;;;;;;;0.50;0.47;;;25.30;40.30;;;-147.20;100.00;58430.41;5076558;28;20056;-18
2022/05/27 09:06:43;;;;;;;0.32;0.32;;;25.30;40.40;;;-147.20;100.00;58430.41;5075244;28;20147;-19
2022/05/27 09:09:26;;;;;;;0.40;0.40;;;25.30;40.40;;;-147.20;100.00;58430.41;5074869;28;20048;-19
2022/05/27 09:12:14;;;;;;;0.40;0.40;;;25.30;40.40;;;-147.20;100.00;58430.41;5076846;28;20087;-19
2022/05/27 09:14:47;;;;;;;0.70;0.60;;;25.30;41.00;;;-147.20;100.00;58430.41;5094691;28;20048;-19
2022/05/27 09:17:33;;;;;;;0.82;0.50;;;25.30;40.40;;;-147.20;100.00;58430.41;5075161;28;20453;-18
2022/05/27 09:20:21;;;;;;;0.93;0.50;;;25.20;40.40;;;-147.20;100.00;58430.41;5059739;28;20047;-20
2022/05/27 09:23:40;;;;;;;1.40;0.50;;;25.20;40.40;;;-147.20;100.00;58430.41;5076767;28;20058;-20
2022/05/27 09:26:41;;;;;;;0.50;0.47;;;25.10;40.40;;;-147.20;100.00;58430.41;5076214;28;20484;-19
2022/05/27 09:29:45;;;;;;;1.00;0.50;;;25.20;40.50;;;-147.20;100.00;58430.41;5094296;28;20044;-18
2022/05/27 09:32:38;;;;;;;1.05;0.40;;;25.20;40.60;;;-147.20;100.00;58430.41;5076263;28;20054;-19
2022/05/27 09:35:14;;;;;;;2.80;0.50;;;25.10;40.60;;;-147.20;100.00;58430.41;5094532;28;20048;-19
2022/05/27 09:37:45;;;;;;;0.50;0.50;;;25.10;40.60;;;-147.20;100.00;58430.41;5075876;28;20060;-18
2022/05/27 09:40:21;;;;;;;0.43;0.43;;;25.10;40.60;;;-147.20;100.00;58430.41;5074497;28;20059;-19
2022/05/27 09:42:59;;;;;;;0.70;0.50;;;25.10;40.50;;;-147.20;100.00;58430.41;5093130;28;20499;-20
2022/05/27 09:45:25;;;;;;;0.80;0.47;;;25.10;40.60;;;-147.20;100.00;58430.41;5094536;28;20044;-19
2022/05/27 09:47:58;;;;;;;0.50;0.50;;;25.10;40.60;;;-147.20;100.00;58430.41;5094126;28;20047;-19
2022/05/27 09:50:26;;;;;;;0.55;0.55;;;25.10;40.60;;;-147.20;100.00;58430.41;5076243;28;20052;-18
2022/05/27 09:52:58;;;;;;;1.30;0.50;;;25.10;40.60;;;-147.20;100.00;58430.41;5075940;28;20381;-18
2022/05/27 09:55:43;;;;;;;;;;;25.10;40.60;;;-147.20;100.00;58430.41;5076930;28;20051;-18
2022/05/27 09:58:09;;;;;;;0.40;0.40;;;25.10;40.60;;;-147.20;100.00;58430.41;5093855;28;19916;-19
2022/05/27 10:00:48;;;;;;;0.77;0.60;;;25.10;40.60;;;-147.20;100.00;58430.41;5094267;28;20055;-19
2022/05/27 10:03:37;;;;;;;0.93;0.57;;;25.00;40.70;;;-147.20;100.00;58430.41;5094544;28;20392;-19
2022/05/27 10:06:09;;;;;;;1.00;0.60;;;25.00;40.70;;;-147.20;100.00;58430.41;5075757;28;20474;-19
2022/05/27 10:08:55;;;;;;;0.50;0.50;;;25.00;40.80;;;-147.20;100.00;58430.41;5093801;28;20044;-19
2022/05/27 10:11:27;;;;;;;0.50;0.50;;;24.90;40.80;;;-147.20;100.00;58430.41;5093678;28;20135;-19
2022/05/27 10:14:31;;;;;;;0.77;0.60;;;25.00;40.90;;;-147.20;100.00;58430.41;5093910;28;20052;-19
2022/05/27 10:17:09;;;;;;;0.63;0.50;;;24.90;40.80;;;-147.20;100.00;58430.41;5093822;28;20051;-20
2022/05/27 10:19:41;;;;;;;1.05;0.50;;;24.90;40.80;;;-147.20;100.00;58430.41;5093552;28;20043;-19
2022/05/27 10:22:22;;;;;;;0.50;0.50;;;24.90;40.80;;;-147.20;100.00;58430.41;5094011;28;20453;-19
2022/05/27 10:25:06;;;;;;;0.70;0.50;;;24.90;40.80;;;-147.20;100.00;58430.41;5093620;28;20072;-19
2022/05/27 10:27:38;;;;;;;0.63;0.60;;;24.90;40.80;;;-147.20;100.00;58430.41;5093417;28;20056;-19
2022/05/27 10:30:28;;;;;;;1.05;0.57;;;24.90;40.90;;;-147.20;100.00;58430.41;5093590;28;20453;-19
2022/05/27 10:32:56;;;;;;;0.83;0.60;;;24.90;40.90;;;-147.20;100.00;58430.41;5093304;28;20052;-19
2022/05/27 10:35:32;;;;;;;0.60;0.55;;;24.90;40.80;;;-147.20;100.00;58430.41;5075186;28;20396;-20
2022/05/27 10:38:38;;;;;;;1.45;0.80;;;24.90;40.90;;;-147.20;100.00;58430.41;5092888;28;20056;-20
2022/05/27 10:41:30;;;;;;;0.60;0.60;;;24.90;40.90;;;-147.20;100.00;58430.41;5093498;28;20403;-20
2022/05/27 10:44:56;;;;;;;0.88;0.70;;;24.90;40.90;;;-147.20;100.00;58430.41;5093283;28;20062;-20
2022/05/27 10:47:52;;;;;;;0.50;0.50;;;24.90;40.80;;;-147.20;100.00;58430.41;5093600;28;20081;-20
2022/05/27 10:50:32;;;;;;;0.60;0.50;;;24.90;40.80;;;-147.20;100.00;58430.41;5075117;28;20415;-20